sensor_id;sensor_type;location;lat;lon;timestamp;P1;durP1;ratioP1;P2;durP2;ratioP2
77362;SDS011;66428;47.322;9.432;2023-03-20T00:01:54;1.98;;;1.40;;
77362;SDS011;66428;47.322;9.432;2023-03-20T00:04:23;1.95;;;1.20;;
77362;SDS011;66428;47.322;9.432;2023-03-20T00:06:51;2.53;;;1.63;;
77362;SDS011;66428;47.322;9.432;2023-03-20T00:09:20;2.92;;;1.75;;
77362;SDS011;66428;47.322;9.432;2023-03-20T00:11:50;2.63;;;1.80;;
77362;SDS011;66428;47.322;9.432;2023-03-20T00:14:18;3.00;;;1.63;;
77362;SDS011;66428;47.322;9.432;2023-03-20T00:16:46;2.28;;;1.60;;
77362;SDS011;66428;47.322;9.432;2023-03-20T00:19:25;2.40;;;1.67;;
77362;SDS011;66428;47.322;9.432;2023-03-20T00:21:52;2.45;;;1.60;;
77362;SDS011;66428;47.322;9.432;2023-03-20T00:24:21;2.97;;;1.30;;
77362;SDS011;66428;47.322;9.432;2023-03-20T00:26:52;2.25;;;1.50;;
77362;SDS011;66428;47.322;9.432;2023-03-20T00:29:23;2.58;;;1.52;;
77362;SDS011;66428;47.322;9.432;2023-03-20T00:31:54;2.55;;;1.50;;
77362;SDS011;66428;47.322;9.432;2023-03-20T00:34:26;2.08;;;1.45;;
77362;SDS011;66428;47.322;9.432;2023-03-20T00:36:57;3.53;;;1.73;;
77362;SDS011;66428;47.322;9.432;2023-03-20T00:39:27;3.20;;;1.98;;
77362;SDS011;66428;47.322;9.432;2023-03-20T00:46:54;5.38;;;3.33;;
77362;SDS011;66428;47.322;9.432;2023-03-20T00:49:24;6.13;;;3.60;;
77362;SDS011;66428;47.322;9.432;2023-03-20T00:51:51;9.55;;;5.63;;
77362;SDS011;66428;47.322;9.432;2023-03-20T00:54:18;7.57;;;4.30;;
77362;SDS011;66428;47.322;9.432;2023-03-20T00:56:45;8.57;;;4.50;;
77362;SDS011;66428;47.322;9.432;2023-03-20T00:59:19;9.50;;;4.95;;
77362;SDS011;66428;47.322;9.432;2023-03-20T01:01:53;9.57;;;5.30;;
77362;SDS011;66428;47.322;9.432;2023-03-20T01:04:20;8.32;;;4.93;;
77362;SDS011;66428;47.322;9.432;2023-03-20T01:06:49;12.30;;;4.90;;
77362;SDS011;66428;47.322;9.432;2023-03-20T01:09:16;8.95;;;4.93;;
77362;SDS011;66428;47.322;9.432;2023-03-20T01:11:45;7.85;;;5.20;;
77362;SDS011;66428;47.322;9.432;2023-03-20T01:14:14;8.25;;;4.57;;
77362;SDS011;66428;47.322;9.432;2023-03-20T01:16:43;7.55;;;5.35;;
77362;SDS011;66428;47.322;9.432;2023-03-20T01:19:12;10.77;;;5.50;;
77362;SDS011;66428;47.322;9.432;2023-03-20T01:21:44;10.50;;;6.05;;
77362;SDS011;66428;47.322;9.432;2023-03-20T01:24:10;11.32;;;5.22;;
77362;SDS011;66428;47.322;9.432;2023-03-20T01:26:40;8.13;;;4.47;;
77362;SDS011;66428;47.322;9.432;2023-03-20T01:29:14;5.72;;;3.95;;
77362;SDS011;66428;47.322;9.432;2023-03-20T01:31:44;7.47;;;4.15;;
77362;SDS011;66428;47.322;9.432;2023-03-20T01:34:11;7.45;;;4.63;;
77362;SDS011;66428;47.322;9.432;2023-03-20T01:36:47;7.50;;;4.60;;
77362;SDS011;66428;47.322;9.432;2023-03-20T01:39:17;11.88;;;5.45;;
77362;SDS011;66428;47.322;9.432;2023-03-20T01:41:47;8.52;;;5.45;;
77362;SDS011;66428;47.322;9.432;2023-03-20T01:44:25;9.90;;;6.32;;
77362;SDS011;66428;47.322;9.432;2023-03-20T01:46:55;9.60;;;5.63;;
77362;SDS011;66428;47.322;9.432;2023-03-20T01:51:54;9.27;;;5.18;;
77362;SDS011;66428;47.322;9.432;2023-03-20T01:54:32;5.05;;;3.80;;
77362;SDS011;66428;47.322;9.432;2023-03-20T01:57:04;5.00;;;3.25;;
77362;SDS011;66428;47.322;9.432;2023-03-20T02:02:03;6.82;;;3.42;;
77362;SDS011;66428;47.322;9.432;2023-03-20T02:04:37;4.07;;;2.63;;
77362;SDS011;66428;47.322;9.432;2023-03-20T02:07:11;5.63;;;2.50;;
77362;SDS011;66428;47.322;9.432;2023-03-20T02:09:45;2.95;;;2.05;;
77362;SDS011;66428;47.322;9.432;2023-03-20T02:12:17;4.20;;;2.15;;
77362;SDS011;66428;47.322;9.432;2023-03-20T02:14:47;2.80;;;2.45;;
77362;SDS011;66428;47.322;9.432;2023-03-20T02:17:47;3.28;;;2.13;;
77362;SDS011;66428;47.322;9.432;2023-03-20T02:38:53;6.38;;;4.70;;
77362;SDS011;66428;47.322;9.432;2023-03-20T02:46:27;9.40;;;5.13;;
77362;SDS011;66428;47.322;9.432;2023-03-20T02:49:02;9.43;;;4.22;;
77362;SDS011;66428;47.322;9.432;2023-03-20T02:54:25;6.93;;;4.45;;
77362;SDS011;66428;47.322;9.432;2023-03-20T02:57:02;6.35;;;4.45;;
77362;SDS011;66428;47.322;9.432;2023-03-20T03:02:03;8.25;;;5.13;;
77362;SDS011;66428;47.322;9.432;2023-03-20T03:04:33;8.40;;;5.32;;
77362;SDS011;66428;47.322;9.432;2023-03-20T03:07:01;7.75;;;4.85;;
77362;SDS011;66428;47.322;9.432;2023-03-20T03:09:29;8.40;;;5.00;;
77362;SDS011;66428;47.322;9.432;2023-03-20T03:12:05;7.85;;;4.70;;
77362;SDS011;66428;47.322;9.432;2023-03-20T03:14:39;6.95;;;4.07;;
77362;SDS011;66428;47.322;9.432;2023-03-20T03:17:11;5.45;;;3.92;;
77362;SDS011;66428;47.322;9.432;2023-03-20T03:19:42;6.30;;;3.95;;
77362;SDS011;66428;47.322;9.432;2023-03-20T03:22:15;7.60;;;4.38;;
77362;SDS011;66428;47.322;9.432;2023-03-20T03:24:42;7.45;;;4.03;;
77362;SDS011;66428;47.322;9.432;2023-03-20T03:27:28;6.40;;;4.82;;
77362;SDS011;66428;47.322;9.432;2023-03-20T03:30:06;7.55;;;4.40;;
77362;SDS011;66428;47.322;9.432;2023-03-20T03:32:39;7.78;;;4.10;;
77362;SDS011;66428;47.322;9.432;2023-03-20T03:35:13;7.28;;;4.45;;
77362;SDS011;66428;47.322;9.432;2023-03-20T03:45:56;7.55;;;4.85;;
77362;SDS011;66428;47.322;9.432;2023-03-20T03:48:34;8.20;;;4.78;;
77362;SDS011;66428;47.322;9.432;2023-03-20T03:51:06;8.70;;;4.70;;
77362;SDS011;66428;47.322;9.432;2023-03-20T03:53:45;8.25;;;5.55;;
77362;SDS011;66428;47.322;9.432;2023-03-20T03:56:15;7.47;;;4.55;;
77362;SDS011;66428;47.322;9.432;2023-03-20T03:58:53;9.68;;;5.60;;
77362;SDS011;66428;47.322;9.432;2023-03-20T04:01:22;10.90;;;6.85;;
77362;SDS011;66428;47.322;9.432;2023-03-20T04:03:51;12.23;;;7.22;;
77362;SDS011;66428;47.322;9.432;2023-03-20T04:06:21;11.48;;;6.95;;
77362;SDS011;66428;47.322;9.432;2023-03-20T04:08:51;13.40;;;7.70;;
77362;SDS011;66428;47.322;9.432;2023-03-20T04:13:47;11.95;;;6.38;;
77362;SDS011;66428;47.322;9.432;2023-03-20T04:16:19;10.35;;;5.72;;
77362;SDS011;66428;47.322;9.432;2023-03-20T04:18:46;9.95;;;6.18;;
77362;SDS011;66428;47.322;9.432;2023-03-20T04:21:14;7.43;;;4.88;;
77362;SDS011;66428;47.322;9.432;2023-03-20T04:23:46;6.03;;;4.82;;
77362;SDS011;66428;47.322;9.432;2023-03-20T04:26:13;8.60;;;4.65;;
77362;SDS011;66428;47.322;9.432;2023-03-20T04:34:13;4.60;;;2.95;;
77362;SDS011;66428;47.322;9.432;2023-03-20T04:36:56;7.47;;;3.88;;
77362;SDS011;66428;47.322;9.432;2023-03-20T04:39:33;5.28;;;4.03;;
77362;SDS011;66428;47.322;9.432;2023-03-20T04:42:00;7.13;;;3.17;;
77362;SDS011;66428;47.322;9.432;2023-03-20T04:44:29;7.85;;;4.38;;
77362;SDS011;66428;47.322;9.432;2023-03-20T04:46:56;5.15;;;4.35;;
77362;SDS011;66428;47.322;9.432;2023-03-20T04:49:33;8.27;;;4.13;;
77362;SDS011;66428;47.322;9.432;2023-03-20T04:52:02;9.85;;;4.70;;
77362;SDS011;66428;47.322;9.432;2023-03-20T04:54:38;7.75;;;4.72;;
77362;SDS011;66428;47.322;9.432;2023-03-20T04:57:08;7.40;;;4.65;;
77362;SDS011;66428;47.322;9.432;2023-03-20T04:59:38;7.90;;;4.65;;
77362;SDS011;66428;47.322;9.432;2023-03-20T05:02:10;7.75;;;4.53;;
77362;SDS011;66428;47.322;9.432;2023-03-20T05:04:42;6.72;;;4.30;;
77362;SDS011;66428;47.322;9.432;2023-03-20T05:07:11;9.90;;;4.85;;
77362;SDS011;66428;47.322;9.432;2023-03-20T05:09:53;9.45;;;4.75;;
77362;SDS011;66428;47.322;9.432;2023-03-20T05:12:24;6.43;;;4.63;;
77362;SDS011;66428;47.322;9.432;2023-03-20T05:15:10;6.40;;;4.35;;
77362;SDS011;66428;47.322;9.432;2023-03-20T05:18:09;7.00;;;3.97;;
77362;SDS011;66428;47.322;9.432;2023-03-20T05:20:43;5.80;;;3.70;;
77362;SDS011;66428;47.322;9.432;2023-03-20T05:23:30;6.57;;;2.70;;
77362;SDS011;66428;47.322;9.432;2023-03-20T05:26:20;4.07;;;3.20;;
77362;SDS011;66428;47.322;9.432;2023-03-20T05:29:12;27.35;;;14.07;;
77362;SDS011;66428;47.322;9.432;2023-03-20T05:32:16;12.13;;;6.20;;
77362;SDS011;66428;47.322;9.432;2023-03-20T05:35:09;9.20;;;5.50;;
77362;SDS011;66428;47.322;9.432;2023-03-20T05:37:47;7.40;;;4.85;;
77362;SDS011;66428;47.322;9.432;2023-03-20T05:40:34;5.80;;;4.25;;
77362;SDS011;66428;47.322;9.432;2023-03-20T05:43:10;9.20;;;6.22;;
77362;SDS011;66428;47.322;9.432;2023-03-20T05:45:59;10.15;;;6.80;;
77362;SDS011;66428;47.322;9.432;2023-03-20T05:48:44;10.85;;;7.63;;
77362;SDS011;66428;47.322;9.432;2023-03-20T05:51:37;8.38;;;5.90;;
77362;SDS011;66428;47.322;9.432;2023-03-20T05:54:26;5.07;;;4.13;;
77362;SDS011;66428;47.322;9.432;2023-03-20T05:57:02;6.57;;;4.45;;
77362;SDS011;66428;47.322;9.432;2023-03-20T05:59:43;4.97;;;3.70;;
77362;SDS011;66428;47.322;9.432;2023-03-20T06:02:36;7.97;;;5.25;;
77362;SDS011;66428;47.322;9.432;2023-03-20T06:05:18;12.55;;;9.48;;
77362;SDS011;66428;47.322;9.432;2023-03-20T06:07:50;11.05;;;7.47;;
77362;SDS011;66428;47.322;9.432;2023-03-20T06:10:17;7.75;;;6.13;;
77362;SDS011;66428;47.322;9.432;2023-03-20T06:12:47;4.80;;;3.80;;
77362;SDS011;66428;47.322;9.432;2023-03-20T06:15:15;5.75;;;3.13;;
77362;SDS011;66428;47.322;9.432;2023-03-20T06:17:48;5.13;;;3.60;;
77362;SDS011;66428;47.322;9.432;2023-03-20T06:20:19;6.57;;;4.10;;
77362;SDS011;66428;47.322;9.432;2023-03-20T06:22:46;4.75;;;3.58;;
77362;SDS011;66428;47.322;9.432;2023-03-20T06:25:14;6.40;;;2.97;;
77362;SDS011;66428;47.322;9.432;2023-03-20T06:27:46;6.28;;;4.40;;
77362;SDS011;66428;47.322;9.432;2023-03-20T06:30:15;4.60;;;3.78;;
77362;SDS011;66428;47.322;9.432;2023-03-20T06:32:44;5.30;;;3.40;;
77362;SDS011;66428;47.322;9.432;2023-03-20T06:35:14;4.53;;;3.20;;
77362;SDS011;66428;47.322;9.432;2023-03-20T06:37:46;5.05;;;3.40;;
77362;SDS011;66428;47.322;9.432;2023-03-20T06:40:21;3.67;;;2.92;;
77362;SDS011;66428;47.322;9.432;2023-03-20T06:42:48;5.18;;;2.75;;
77362;SDS011;66428;47.322;9.432;2023-03-20T06:45:21;3.60;;;2.75;;
77362;SDS011;66428;47.322;9.432;2023-03-20T06:47:59;5.50;;;3.65;;
77362;SDS011;66428;47.322;9.432;2023-03-20T06:50:28;3.78;;;2.83;;
77362;SDS011;66428;47.322;9.432;2023-03-20T06:52:57;3.97;;;3.28;;
77362;SDS011;66428;47.322;9.432;2023-03-20T06:58:12;4.78;;;3.10;;
77362;SDS011;66428;47.322;9.432;2023-03-20T07:00:45;4.20;;;2.88;;
77362;SDS011;66428;47.322;9.432;2023-03-20T07:03:12;5.72;;;3.05;;
77362;SDS011;66428;47.322;9.432;2023-03-20T07:05:44;4.32;;;3.50;;
77362;SDS011;66428;47.322;9.432;2023-03-20T07:08:11;4.45;;;3.78;;
77362;SDS011;66428;47.322;9.432;2023-03-20T07:10:38;4.30;;;2.97;;
77362;SDS011;66428;47.322;9.432;2023-03-20T07:13:07;5.40;;;3.08;;
77362;SDS011;66428;47.322;9.432;2023-03-20T07:15:36;4.50;;;3.13;;
77362;SDS011;66428;47.322;9.432;2023-03-20T07:18:05;4.32;;;3.10;;
77362;SDS011;66428;47.322;9.432;2023-03-20T07:20:37;3.92;;;3.05;;
77362;SDS011;66428;47.322;9.432;2023-03-20T07:23:06;4.80;;;3.70;;
77362;SDS011;66428;47.322;9.432;2023-03-20T07:25:36;5.18;;;3.60;;
77362;SDS011;66428;47.322;9.432;2023-03-20T07:28:13;3.22;;;2.60;;
77362;SDS011;66428;47.322;9.432;2023-03-20T07:30:45;4.60;;;3.17;;
77362;SDS011;66428;47.322;9.432;2023-03-20T07:33:15;3.63;;;2.70;;
77362;SDS011;66428;47.322;9.432;2023-03-20T07:35:53;6.05;;;3.38;;
77362;SDS011;66428;47.322;9.432;2023-03-20T07:38:20;5.68;;;3.20;;
77362;SDS011;66428;47.322;9.432;2023-03-20T07:41:02;6.22;;;4.13;;
77362;SDS011;66428;47.322;9.432;2023-03-20T07:43:32;6.78;;;4.20;;
77362;SDS011;66428;47.322;9.432;2023-03-20T07:46:16;5.57;;;4.15;;
77362;SDS011;66428;47.322;9.432;2023-03-20T07:48:48;5.32;;;4.18;;
77362;SDS011;66428;47.322;9.432;2023-03-20T07:51:17;4.75;;;3.17;;
77362;SDS011;66428;47.322;9.432;2023-03-20T07:53:44;6.72;;;3.55;;
77362;SDS011;66428;47.322;9.432;2023-03-20T07:56:13;5.18;;;3.53;;
77362;SDS011;66428;47.322;9.432;2023-03-20T07:58:39;5.10;;;3.22;;
77362;SDS011;66428;47.322;9.432;2023-03-20T08:01:06;4.28;;;3.05;;
77362;SDS011;66428;47.322;9.432;2023-03-20T08:03:32;5.18;;;3.38;;
77362;SDS011;66428;47.322;9.432;2023-03-20T08:05:59;5.00;;;3.40;;
77362;SDS011;66428;47.322;9.432;2023-03-20T08:08:29;5.35;;;4.03;;
77362;SDS011;66428;47.322;9.432;2023-03-20T08:11:00;5.10;;;3.25;;
77362;SDS011;66428;47.322;9.432;2023-03-20T08:13:32;5.15;;;3.45;;
77362;SDS011;66428;47.322;9.432;2023-03-20T08:15:59;5.97;;;3.40;;
77362;SDS011;66428;47.322;9.432;2023-03-20T08:18:28;4.95;;;3.22;;
77362;SDS011;66428;47.322;9.432;2023-03-20T08:21:03;4.28;;;3.17;;
77362;SDS011;66428;47.322;9.432;2023-03-20T08:23:32;5.28;;;3.58;;
77362;SDS011;66428;47.322;9.432;2023-03-20T08:26:01;5.80;;;3.40;;
77362;SDS011;66428;47.322;9.432;2023-03-20T08:28:27;4.20;;;2.88;;
77362;SDS011;66428;47.322;9.432;2023-03-20T08:31:15;4.95;;;3.78;;
77362;SDS011;66428;47.322;9.432;2023-03-20T08:33:45;4.47;;;3.30;;
77362;SDS011;66428;47.322;9.432;2023-03-20T08:36:15;3.70;;;2.90;;
77362;SDS011;66428;47.322;9.432;2023-03-20T08:38:45;3.17;;;2.50;;
77362;SDS011;66428;47.322;9.432;2023-03-20T08:41:17;3.28;;;2.38;;
77362;SDS011;66428;47.322;9.432;2023-03-20T08:43:43;3.63;;;2.55;;
77362;SDS011;66428;47.322;9.432;2023-03-20T08:46:12;4.63;;;2.45;;
77362;SDS011;66428;47.322;9.432;2023-03-20T08:48:39;3.50;;;2.72;;
77362;SDS011;66428;47.322;9.432;2023-03-20T08:51:11;3.85;;;2.60;;
77362;SDS011;66428;47.322;9.432;2023-03-20T08:53:38;4.10;;;2.85;;
77362;SDS011;66428;47.322;9.432;2023-03-20T08:56:07;3.80;;;3.05;;
77362;SDS011;66428;47.322;9.432;2023-03-20T08:58:36;5.18;;;3.08;;
77362;SDS011;66428;47.322;9.432;2023-03-20T09:01:06;4.90;;;2.58;;
77362;SDS011;66428;47.322;9.432;2023-03-20T09:03:36;5.78;;;2.55;;
77362;SDS011;66428;47.322;9.432;2023-03-20T09:06:05;3.85;;;2.42;;
77362;SDS011;66428;47.322;9.432;2023-03-20T09:08:32;4.00;;;3.00;;
77362;SDS011;66428;47.322;9.432;2023-03-20T09:10:59;3.35;;;2.65;;
77362;SDS011;66428;47.322;9.432;2023-03-20T09:13:26;3.70;;;2.40;;
77362;SDS011;66428;47.322;9.432;2023-03-20T09:15:55;4.35;;;2.60;;
77362;SDS011;66428;47.322;9.432;2023-03-20T09:18:24;3.88;;;2.90;;
77362;SDS011;66428;47.322;9.432;2023-03-20T09:20:51;3.85;;;2.55;;
77362;SDS011;66428;47.322;9.432;2023-03-20T09:23:18;4.03;;;2.75;;
77362;SDS011;66428;47.322;9.432;2023-03-20T09:25:46;3.70;;;2.45;;
77362;SDS011;66428;47.322;9.432;2023-03-20T09:28:13;4.05;;;2.63;;
77362;SDS011;66428;47.322;9.432;2023-03-20T09:30:40;4.07;;;2.60;;
77362;SDS011;66428;47.322;9.432;2023-03-20T09:33:09;3.20;;;2.28;;
77362;SDS011;66428;47.322;9.432;2023-03-20T09:35:39;3.05;;;2.15;;
77362;SDS011;66428;47.322;9.432;2023-03-20T09:38:11;3.67;;;2.70;;
77362;SDS011;66428;47.322;9.432;2023-03-20T09:48:47;4.65;;;3.22;;
77362;SDS011;66428;47.322;9.432;2023-03-20T09:51:38;5.43;;;2.58;;
77362;SDS011;66428;47.322;9.432;2023-03-20T10:00:28;3.83;;;2.22;;
77362;SDS011;66428;47.322;9.432;2023-03-20T10:06:05;3.75;;;2.90;;
77362;SDS011;66428;47.322;9.432;2023-03-20T10:08:35;3.33;;;2.67;;
77362;SDS011;66428;47.322;9.432;2023-03-20T10:11:05;4.00;;;2.22;;
77362;SDS011;66428;47.322;9.432;2023-03-20T10:18:31;3.60;;;2.53;;
77362;SDS011;66428;47.322;9.432;2023-03-20T10:21:02;3.38;;;2.33;;
77362;SDS011;66428;47.322;9.432;2023-03-20T10:26:00;4.18;;;2.33;;
77362;SDS011;66428;47.322;9.432;2023-03-20T10:28:33;4.45;;;2.00;;
77362;SDS011;66428;47.322;9.432;2023-03-20T10:39:10;3.55;;;2.28;;
77362;SDS011;66428;47.322;9.432;2023-03-20T10:44:05;2.95;;;2.00;;
77362;SDS011;66428;47.322;9.432;2023-03-20T10:46:43;4.03;;;2.30;;
77362;SDS011;66428;47.322;9.432;2023-03-20T10:49:44;3.28;;;2.20;;
77362;SDS011;66428;47.322;9.432;2023-03-20T10:52:09;4.07;;;1.98;;
77362;SDS011;66428;47.322;9.432;2023-03-20T10:54:39;3.30;;;2.50;;
77362;SDS011;66428;47.322;9.432;2023-03-20T10:57:20;3.25;;;2.08;;
77362;SDS011;66428;47.322;9.432;2023-03-20T10:59:49;3.15;;;2.33;;
77362;SDS011;66428;47.322;9.432;2023-03-20T11:02:16;4.05;;;2.30;;
77362;SDS011;66428;47.322;9.432;2023-03-20T11:04:43;6.18;;;2.50;;
77362;SDS011;66428;47.322;9.432;2023-03-20T11:09:39;6.65;;;2.30;;
77362;SDS011;66428;47.322;9.432;2023-03-20T11:12:13;2.95;;;2.10;;
77362;SDS011;66428;47.322;9.432;2023-03-20T11:14:43;3.60;;;2.22;;
77362;SDS011;66428;47.322;9.432;2023-03-20T11:17:10;4.60;;;2.55;;
77362;SDS011;66428;47.322;9.432;2023-03-20T11:19:40;3.90;;;2.35;;
77362;SDS011;66428;47.322;9.432;2023-03-20T11:22:08;3.70;;;1.88;;
77362;SDS011;66428;47.322;9.432;2023-03-20T11:24:41;4.13;;;2.20;;
77362;SDS011;66428;47.322;9.432;2023-03-20T11:27:14;3.53;;;2.40;;
77362;SDS011;66428;47.322;9.432;2023-03-20T11:29:41;3.92;;;2.33;;
77362;SDS011;66428;47.322;9.432;2023-03-20T11:32:24;3.53;;;2.17;;
77362;SDS011;66428;47.322;9.432;2023-03-20T11:34:52;3.05;;;2.10;;
77362;SDS011;66428;47.322;9.432;2023-03-20T11:37:26;4.22;;;2.83;;
77362;SDS011;66428;47.322;9.432;2023-03-20T11:40:06;3.63;;;2.40;;
77362;SDS011;66428;47.322;9.432;2023-03-20T11:42:32;3.60;;;2.25;;
77362;SDS011;66428;47.322;9.432;2023-03-20T11:45:03;3.50;;;2.33;;
77362;SDS011;66428;47.322;9.432;2023-03-20T11:47:31;3.00;;;2.28;;
77362;SDS011;66428;47.322;9.432;2023-03-20T11:50:00;3.38;;;2.30;;
77362;SDS011;66428;47.322;9.432;2023-03-20T11:52:34;4.55;;;2.30;;
77362;SDS011;66428;47.322;9.432;2023-03-20T11:55:07;4.03;;;2.75;;
77362;SDS011;66428;47.322;9.432;2023-03-20T11:57:44;3.35;;;2.22;;
77362;SDS011;66428;47.322;9.432;2023-03-20T12:00:22;3.72;;;2.00;;
77362;SDS011;66428;47.322;9.432;2023-03-20T12:02:49;4.18;;;2.55;;
77362;SDS011;66428;47.322;9.432;2023-03-20T12:05:32;3.15;;;2.35;;
77362;SDS011;66428;47.322;9.432;2023-03-20T12:08:08;3.67;;;2.00;;
77362;SDS011;66428;47.322;9.432;2023-03-20T12:10:40;3.17;;;2.33;;
77362;SDS011;66428;47.322;9.432;2023-03-20T12:13:19;4.05;;;1.95;;
77362;SDS011;66428;47.322;9.432;2023-03-20T12:15:49;3.80;;;2.28;;
77362;SDS011;66428;47.322;9.432;2023-03-20T12:26:31;3.50;;;2.45;;
77362;SDS011;66428;47.322;9.432;2023-03-20T12:29:06;2.95;;;2.22;;
77362;SDS011;66428;47.322;9.432;2023-03-20T12:31:51;3.97;;;2.50;;
77362;SDS011;66428;47.322;9.432;2023-03-20T12:34:23;2.88;;;2.30;;
77362;SDS011;66428;47.322;9.432;2023-03-20T12:36:50;3.20;;;2.45;;
77362;SDS011;66428;47.322;9.432;2023-03-20T12:39:25;3.42;;;2.35;;
77362;SDS011;66428;47.322;9.432;2023-03-20T13:02:31;3.05;;;2.03;;
77362;SDS011;66428;47.322;9.432;2023-03-20T13:05:15;2.78;;;2.28;;
77362;SDS011;66428;47.322;9.432;2023-03-20T13:15:13;3.47;;;2.10;;
77362;SDS011;66428;47.322;9.432;2023-03-20T13:17:49;2.75;;;2.00;;
77362;SDS011;66428;47.322;9.432;2023-03-20T13:38:53;3.80;;;2.30;;
77362;SDS011;66428;47.322;9.432;2023-03-20T13:41:23;2.75;;;1.92;;
77362;SDS011;66428;47.322;9.432;2023-03-20T13:43:55;3.47;;;2.08;;
77362;SDS011;66428;47.322;9.432;2023-03-20T13:46:25;3.00;;;2.20;;
77362;SDS011;66428;47.322;9.432;2023-03-20T13:48:55;3.42;;;2.00;;
77362;SDS011;66428;47.322;9.432;2023-03-20T14:01:24;2.83;;;2.00;;
77362;SDS011;66428;47.322;9.432;2023-03-20T14:03:53;2.80;;;2.30;;
77362;SDS011;66428;47.322;9.432;2023-03-20T14:08:53;2.85;;;1.77;;
77362;SDS011;66428;47.322;9.432;2023-03-20T14:13:47;5.13;;;2.25;;
77362;SDS011;66428;47.322;9.432;2023-03-20T14:16:16;3.92;;;2.47;;
77362;SDS011;66428;47.322;9.432;2023-03-20T14:18:43;2.50;;;2.03;;
77362;SDS011;66428;47.322;9.432;2023-03-20T14:21:18;3.35;;;2.47;;
77362;SDS011;66428;47.322;9.432;2023-03-20T14:23:49;3.63;;;2.75;;
77362;SDS011;66428;47.322;9.432;2023-03-20T14:26:37;3.80;;;2.90;;
77362;SDS011;66428;47.322;9.432;2023-03-20T14:31:39;3.38;;;2.30;;
77362;SDS011;66428;47.322;9.432;2023-03-20T14:42:05;3.83;;;2.65;;
77362;SDS011;66428;47.322;9.432;2023-03-20T14:49:54;3.30;;;2.67;;
77362;SDS011;66428;47.322;9.432;2023-03-20T14:57:45;5.68;;;2.70;;
77362;SDS011;66428;47.322;9.432;2023-03-20T15:00:23;4.32;;;2.80;;
77362;SDS011;66428;47.322;9.432;2023-03-20T15:02:54;4.75;;;2.50;;
77362;SDS011;66428;47.322;9.432;2023-03-20T15:05:29;3.92;;;2.45;;
77362;SDS011;66428;47.322;9.432;2023-03-20T15:08:06;3.10;;;2.53;;
77362;SDS011;66428;47.322;9.432;2023-03-20T15:10:45;3.50;;;3.03;;
77362;SDS011;66428;47.322;9.432;2023-03-20T15:13:15;5.88;;;3.00;;
77362;SDS011;66428;47.322;9.432;2023-03-20T15:18:22;4.30;;;2.78;;
77362;SDS011;66428;47.322;9.432;2023-03-20T15:20:49;5.38;;;3.83;;
77362;SDS011;66428;47.322;9.432;2023-03-20T15:23:15;3.50;;;2.78;;
77362;SDS011;66428;47.322;9.432;2023-03-20T15:25:46;3.08;;;2.30;;
77362;SDS011;66428;47.322;9.432;2023-03-20T15:28:14;3.25;;;2.53;;
77362;SDS011;66428;47.322;9.432;2023-03-20T15:30:45;3.53;;;2.55;;
77362;SDS011;66428;47.322;9.432;2023-03-20T15:33:19;4.63;;;2.35;;
77362;SDS011;66428;47.322;9.432;2023-03-20T15:35:52;3.47;;;2.50;;
77362;SDS011;66428;47.322;9.432;2023-03-20T15:38:19;4.68;;;2.50;;
77362;SDS011;66428;47.322;9.432;2023-03-20T15:40:51;3.13;;;2.35;;
77362;SDS011;66428;47.322;9.432;2023-03-20T15:43:23;3.40;;;2.38;;
77362;SDS011;66428;47.322;9.432;2023-03-20T15:45:52;2.63;;;2.10;;
77362;SDS011;66428;47.322;9.432;2023-03-20T15:51:11;3.72;;;2.65;;
77362;SDS011;66428;47.322;9.432;2023-03-20T15:53:40;4.50;;;3.35;;
77362;SDS011;66428;47.322;9.432;2023-03-20T15:56:11;3.60;;;2.90;;
77362;SDS011;66428;47.322;9.432;2023-03-20T15:58:46;4.35;;;2.75;;
77362;SDS011;66428;47.322;9.432;2023-03-20T16:01:21;4.03;;;3.30;;
77362;SDS011;66428;47.322;9.432;2023-03-20T16:03:51;3.95;;;2.95;;
77362;SDS011;66428;47.322;9.432;2023-03-20T16:06:21;3.67;;;2.85;;
77362;SDS011;66428;47.322;9.432;2023-03-20T16:09:00;4.68;;;3.25;;
77362;SDS011;66428;47.322;9.432;2023-03-20T16:11:33;4.80;;;3.28;;
77362;SDS011;66428;47.322;9.432;2023-03-20T16:14:06;5.47;;;3.47;;
77362;SDS011;66428;47.322;9.432;2023-03-20T16:16:37;4.80;;;2.92;;
77362;SDS011;66428;47.322;9.432;2023-03-20T16:19:09;4.40;;;2.85;;
77362;SDS011;66428;47.322;9.432;2023-03-20T16:21:37;3.05;;;2.33;;
77362;SDS011;66428;47.322;9.432;2023-03-20T16:24:09;5.05;;;2.85;;
77362;SDS011;66428;47.322;9.432;2023-03-20T16:26:41;4.13;;;2.80;;
77362;SDS011;66428;47.322;9.432;2023-03-20T16:29:08;8.73;;;3.22;;
77362;SDS011;66428;47.322;9.432;2023-03-20T16:31:39;5.50;;;2.67;;
77362;SDS011;66428;47.322;9.432;2023-03-20T16:34:13;4.47;;;2.65;;
77362;SDS011;66428;47.322;9.432;2023-03-20T16:36:47;3.17;;;2.45;;
77362;SDS011;66428;47.322;9.432;2023-03-20T16:41:44;3.58;;;2.60;;
77362;SDS011;66428;47.322;9.432;2023-03-20T16:44:19;4.15;;;2.88;;
77362;SDS011;66428;47.322;9.432;2023-03-20T16:46:59;4.32;;;2.67;;
77362;SDS011;66428;47.322;9.432;2023-03-20T16:52:02;4.10;;;2.53;;
77362;SDS011;66428;47.322;9.432;2023-03-20T16:54:33;3.70;;;2.80;;
77362;SDS011;66428;47.322;9.432;2023-03-20T16:57:03;4.57;;;2.90;;
77362;SDS011;66428;47.322;9.432;2023-03-20T16:59:37;3.75;;;2.67;;
77362;SDS011;66428;47.322;9.432;2023-03-20T17:02:10;3.92;;;3.03;;
77362;SDS011;66428;47.322;9.432;2023-03-20T17:04:39;4.03;;;2.85;;
77362;SDS011;66428;47.322;9.432;2023-03-20T17:07:11;3.38;;;2.75;;
77362;SDS011;66428;47.322;9.432;2023-03-20T17:09:52;4.10;;;2.58;;
77362;SDS011;66428;47.322;9.432;2023-03-20T17:12:19;4.43;;;2.60;;
77362;SDS011;66428;47.322;9.432;2023-03-20T17:14:51;4.03;;;2.53;;
77362;SDS011;66428;47.322;9.432;2023-03-20T17:17:22;5.00;;;2.47;;
77362;SDS011;66428;47.322;9.432;2023-03-20T17:19:53;3.45;;;2.78;;
77362;SDS011;66428;47.322;9.432;2023-03-20T17:22:23;4.78;;;2.90;;
77362;SDS011;66428;47.322;9.432;2023-03-20T17:24:54;4.50;;;3.10;;
77362;SDS011;66428;47.322;9.432;2023-03-20T17:27:26;6.97;;;3.35;;
77362;SDS011;66428;47.322;9.432;2023-03-20T17:29:53;7.15;;;3.28;;
77362;SDS011;66428;47.322;9.432;2023-03-20T17:32:22;6.53;;;5.47;;
77362;SDS011;66428;47.322;9.432;2023-03-20T17:34:51;13.20;;;6.43;;
77362;SDS011;66428;47.322;9.432;2023-03-20T17:37:24;7.97;;;3.83;;
77362;SDS011;66428;47.322;9.432;2023-03-20T17:39:57;5.60;;;3.50;;
77362;SDS011;66428;47.322;9.432;2023-03-20T17:42:31;5.80;;;4.45;;
77362;SDS011;66428;47.322;9.432;2023-03-20T17:44:59;7.68;;;4.70;;
77362;SDS011;66428;47.322;9.432;2023-03-20T17:47:28;5.97;;;4.15;;
77362;SDS011;66428;47.322;9.432;2023-03-20T17:49:55;6.35;;;3.97;;
77362;SDS011;66428;47.322;9.432;2023-03-20T17:52:27;5.10;;;3.55;;
77362;SDS011;66428;47.322;9.432;2023-03-20T17:54:54;4.68;;;3.63;;
77362;SDS011;66428;47.322;9.432;2023-03-20T17:57:30;6.68;;;4.88;;
77362;SDS011;66428;47.322;9.432;2023-03-20T17:59:59;6.28;;;5.10;;
77362;SDS011;66428;47.322;9.432;2023-03-20T18:02:26;5.70;;;4.70;;
77362;SDS011;66428;47.322;9.432;2023-03-20T18:04:53;7.32;;;5.60;;
77362;SDS011;66428;47.322;9.432;2023-03-20T18:07:19;8.82;;;5.88;;
77362;SDS011;66428;47.322;9.432;2023-03-20T18:09:46;11.32;;;7.45;;
77362;SDS011;66428;47.322;9.432;2023-03-20T18:12:17;8.95;;;8.00;;
77362;SDS011;66428;47.322;9.432;2023-03-20T18:14:44;9.02;;;6.50;;
77362;SDS011;66428;47.322;9.432;2023-03-20T18:17:14;13.52;;;7.32;;
77362;SDS011;66428;47.322;9.432;2023-03-20T18:19:43;16.02;;;9.93;;
77362;SDS011;66428;47.322;9.432;2023-03-20T18:22:10;11.15;;;6.75;;
77362;SDS011;66428;47.322;9.432;2023-03-20T18:24:39;6.93;;;4.75;;
77362;SDS011;66428;47.322;9.432;2023-03-20T18:27:10;5.30;;;4.18;;
77362;SDS011;66428;47.322;9.432;2023-03-20T18:29:42;7.32;;;5.13;;
77362;SDS011;66428;47.322;9.432;2023-03-20T18:32:11;4.95;;;3.45;;
77362;SDS011;66428;47.322;9.432;2023-03-20T18:34:42;9.75;;;5.53;;